Gener8 Spyridon — V7BY9 — position and weather

sailwx.info

Track history (hours):
 
Tides and Currents Weather Stations Pressure Air Temp Water Temp Dewpoint Dewpoint Depression Visibility Wind Speed Wind Dir Waves Ship Positions

Gener8 Spyridon

Last reported at 2016-Jun-12 03:26 UTC. Time now 2016-Jun-27 22:15 UTC.
Position N 01°13' E 103°53'.
Warning: this ship's position is 15 days out of date.

Length 275 m; draft 9.1 m.

Type: Tanker. MMSI: 538001404.

Date/timePositionNaut miles runAvg speedWind from/ knotsBaromVisibWave heightAir tempDewpointWater temp
2016-Jun-12 03:26N 01°13' E 103°53'6 2.8
2016-Jun-12 01:24N 01°16' E 103°57'0 0.0
2016-Jun-11 22:33N 01°16' E 103°57'0 0.0
2016-Jun-11 21:33N 01°16' E 103°57'0 0.1
2016-Jun-11 20:33N 01°16' E 103°57'0 0.1
2016-Jun-11 19:27N 01°16' E 103°57'0 0.0
2016-Jun-11 18:57N 01°16' E 103°57'0 0.0
2016-Jun-11 17:33N 01°16' E 103°57'0 0.0
2016-Jun-11 16:27N 01°16' E 103°57'0 0.0
2016-Jun-11 13:33N 01°16' E 103°57'0 0.1
2016-Jun-11 12:27N 01°16' E 103°57'0 0.0
2016-Jun-11 10:33N 01°16' E 103°57'0 0.0
2016-Jun-11 09:33N 01°16' E 103°57'0 0.0
2016-Jun-11 08:21N 01°16' E 103°57'0 0.0
2016-Jun-11 07:33N 01°16' E 103°57'1 1.0
2016-Jun-11 06:33N 01°15' E 103°57'3 2.6
2016-Jun-11 05:33N 01°13' E 103°55'7 7.0
2016-Jun-11 04:33N 01°10' E 103°49'  
2016-Jun-08 08:33N 01°48' E 102°26'  
Track history (hours):
 
Tides and Currents Weather Stations Pressure Air Temp Water Temp Dewpoint Dewpoint Depression Visibility Wind Speed Wind Dir Waves Ship Positions

Gener8 Spyridon

Last reported at 2016-Jun-12 03:26 UTC. Time now 2016-Jun-27 22:15 UTC.
Position N 01°13' E 103°53'.
Warning: this ship's position is 15 days out of date.

Length 275 m; draft 9.1 m.

Type: Tanker. MMSI: 538001404.

Date/timePositionNaut miles runAvg speedWind from/ knotsBaromVisibWave heightAir tempDewpointWater temp
2016-Jun-12 03:26N 01°13' E 103°53'6 2.8
2016-Jun-12 01:24N 01°16' E 103°57'0 0.0
2016-Jun-11 22:33N 01°16' E 103°57'0 0.0
2016-Jun-11 21:33N 01°16' E 103°57'0 0.1
2016-Jun-11 20:33N 01°16' E 103°57'0 0.1
2016-Jun-11 19:27N 01°16' E 103°57'0 0.0
2016-Jun-11 18:57N 01°16' E 103°57'0 0.0
2016-Jun-11 17:33N 01°16' E 103°57'0 0.0
2016-Jun-11 16:27N 01°16' E 103°57'0 0.0
2016-Jun-11 13:33N 01°16' E 103°57'0 0.1
2016-Jun-11 12:27N 01°16' E 103°57'0 0.0
2016-Jun-11 10:33N 01°16' E 103°57'0 0.0
2016-Jun-11 09:33N 01°16' E 103°57'0 0.0
2016-Jun-11 08:21N 01°16' E 103°57'0 0.0
2016-Jun-11 07:33N 01°16' E 103°57'1 1.0
2016-Jun-11 06:33N 01°15' E 103°57'3 2.6
2016-Jun-11 05:33N 01°13' E 103°55'7 7.0
2016-Jun-11 04:33N 01°10' E 103°49'  
2016-Jun-08 08:33N 01°48' E 102°26'  

Dump ship's entire track history